Time;durP1;ratioP1;P1;durP2;ratioP2;P2;SDS_P1;SDS_P2;PMS_P1;PMS_P2;Temp;Humidity;BMP_temperature;BMP_pressure;BME280_temperature;BME280_humidity;BME280_pressure;Samples;Min_cycle;Max_cycle;Signal;HPM_P1;HPM_P2
2022/05/22 00:02:25;;;;;;;9.38;3.30;;;9.10;99.90;;;;;;5156487;27;20047;-80
2022/05/22 00:04:51;;;;;;;10.35;4.05;;;9.10;99.90;;;;;;5119750;27;20047;-80
2022/05/22 00:07:16;;;;;;;9.98;3.65;;;9.10;99.90;;;;;;5128733;27;20481;-80
2022/05/22 00:09:42;;;;;;;7.53;3.97;;;9.10;99.90;;;;;;5137769;27;20082;-80
2022/05/22 00:12:10;;;;;;;10.30;4.68;;;9.10;99.90;;;;;;5147503;27;20039;-80
2022/05/22 00:14:36;;;;;;;14.10;4.50;;;9.20;99.90;;;;;;5142075;27;20444;-80
2022/05/22 00:17:03;;;;;;;12.98;4.95;;;9.10;99.90;;;;;;5128365;27;20470;-80
2022/05/22 00:19:31;;;;;;;10.50;4.03;;;9.20;99.90;;;;;;5157697;27;20062;-80
2022/05/22 00:21:58;;;;;;;11.35;3.97;;;9.20;99.90;;;;;;5137863;27;20505;-80
2022/05/22 00:24:25;;;;;;;11.45;4.05;;;9.20;99.90;;;;;;5158337;27;20039;-80
2022/05/22 00:26:51;;;;;;;17.10;5.55;;;9.20;99.90;;;;;;5137293;27;20509;-80
2022/05/22 00:29:18;;;;;;;12.15;4.85;;;9.20;99.90;;;;;;5146211;27;20107;-80
2022/05/22 00:31:44;;;;;;;14.40;5.82;;;9.20;99.90;;;;;;5141042;27;20039;-80
2022/05/22 00:34:11;;;;;;;10.63;5.25;;;9.20;99.90;;;;;;5117108;27;20118;-80
2022/05/22 00:36:37;;;;;;;11.38;5.57;;;9.20;99.90;;;;;;5131551;27;20051;-80
2022/05/22 00:39:02;;;;;;;19.92;6.13;;;9.10;99.90;;;;;;5156520;27;20034;-80
2022/05/22 00:41:29;;;;;;;13.75;5.07;;;9.10;99.90;;;;;;5138429;27;20428;-80
2022/05/22 00:43:56;;;;;;;11.80;5.40;;;9.10;99.90;;;;;;5137849;27;20104;-80
2022/05/22 00:46:23;;;;;;;12.82;5.43;;;9.00;99.90;;;;;;5135367;27;20104;-80
2022/05/22 00:48:54;;;;;;;14.77;6.43;;;9.10;99.90;;;;;;5135397;27;20039;-80
2022/05/22 00:51:26;;;;;;;15.85;6.15;;;9.10;99.90;;;;;;5139525;27;20209;-80
2022/05/22 00:53:57;;;;;;;8.60;4.72;;;9.10;99.90;;;;;;5155675;27;20536;-80
2022/05/22 00:56:27;;;;;;;11.85;4.90;;;9.00;99.90;;;;;;5139509;27;20061;-81
2022/05/22 00:58:56;;;;;;;9.65;5.07;;;9.00;99.90;;;;;;5156019;27;20082;-80
2022/05/22 01:01:22;;;;;;;10.05;5.28;;;9.00;99.90;;;;;;5126669;27;20039;-80
2022/05/22 01:03:48;;;;;;;11.30;5.10;;;9.00;99.90;;;;;;5136655;27;20457;-80
2022/05/22 01:06:19;;;;;;;12.50;4.93;;;9.00;99.90;;;;;;5117825;27;20126;-80
2022/05/22 01:08:47;;;;;;;7.50;5.05;;;9.00;99.90;;;;;;5112829;27;20074;-80
2022/05/22 01:11:18;;;;;;;13.85;4.82;;;9.00;99.90;;;;;;5157447;27;20123;-80
2022/05/22 01:13:50;;;;;;;14.70;5.13;;;9.00;99.90;;;;;;5155714;27;20469;-80
2022/05/22 01:16:16;;;;;;;14.00;5.88;;;9.00;99.90;;;;;;5143722;27;20090;-80
2022/05/22 01:18:43;;;;;;;9.50;5.22;;;9.00;99.90;;;;;;5147058;27;20042;-80
2022/05/22 01:21:16;;;;;;;12.40;5.65;;;8.90;99.90;;;;;;5138786;27;20043;-80
2022/05/22 01:23:42;;;;;;;11.98;5.15;;;8.90;99.90;;;;;;5124410;27;20402;-80
2022/05/22 01:26:09;;;;;;;11.90;5.25;;;8.80;99.90;;;;;;5152515;27;20447;-80
2022/05/22 01:28:35;;;;;;;9.15;4.40;;;8.80;99.90;;;;;;5155666;27;20039;-80
2022/05/22 01:31:01;;;;;;;14.55;5.57;;;8.80;99.90;;;;;;5137975;27;20053;-80
2022/05/22 01:33:27;;;;;;;10.00;4.43;;;8.70;99.90;;;;;;5125699;27;20110;-80
2022/05/22 01:35:53;;;;;;;10.43;4.85;;;8.70;99.90;;;;;;5118033;27;20055;-80
2022/05/22 01:38:19;;;;;;;11.68;5.05;;;8.80;99.90;;;;;;5100184;27;20039;-80
2022/05/22 01:40:45;;;;;;;9.70;4.75;;;8.70;99.90;;;;;;5135541;27;20375;-80
2022/05/22 01:43:11;;;;;;;12.93;5.97;;;8.70;99.90;;;;;;5123809;27;20049;-80
2022/05/22 01:45:37;;;;;;;12.75;5.50;;;8.70;99.90;;;;;;5120768;27;20436;-80
2022/05/22 01:48:03;;;;;;;8.75;4.90;;;8.60;99.90;;;;;;5129741;27;20130;-80
2022/05/22 01:50:29;;;;;;;13.65;5.10;;;8.50;99.90;;;;;;5137522;27;20085;-80
2022/05/22 01:52:55;;;;;;;9.20;4.55;;;8.50;99.90;;;;;;5112628;27;20123;-80
2022/05/22 01:55:21;;;;;;;10.40;4.88;;;8.50;99.90;;;;;;5117484;27;20486;-80
2022/05/22 01:57:47;;;;;;;12.13;5.57;;;8.50;99.90;;;;;;5134445;27;20482;-79
2022/05/22 02:00:16;;;;;;;9.13;5.18;;;8.50;99.90;;;;;;5100254;27;20059;-80
2022/05/22 02:02:42;;;;;;;14.52;4.80;;;8.50;99.90;;;;;;5108586;27;20048;-80
2022/05/22 02:05:08;;;;;;;10.27;4.35;;;8.50;99.90;;;;;;5116533;27;20051;-80
2022/05/22 02:10:19;;;;;;;8.02;3.92;;;8.50;99.90;;;;;;5123757;27;20042;-80
2022/05/22 02:12:45;;;;;;;13.88;4.90;;;8.50;99.90;;;;;;5127267;27;20038;-80
2022/05/22 02:15:11;;;;;;;12.85;4.55;;;8.50;99.90;;;;;;5135129;27;20450;-80
2022/05/22 02:17:37;;;;;;;7.78;4.20;;;8.50;99.90;;;;;;5155931;27;20050;-80
2022/05/22 02:20:03;;;;;;;5.60;2.90;;;8.50;99.90;;;;;;5136851;27;20138;-80
2022/05/22 02:22:29;;;;;;;8.35;3.60;;;8.40;99.90;;;;;;5154416;27;20039;-80
2022/05/22 02:24:55;;;;;;;4.88;3.13;;;8.40;99.90;;;;;;5126531;27;20050;-80
2022/05/22 02:27:21;;;;;;;5.07;3.35;;;8.30;99.90;;;;;;5133292;27;20094;-80
2022/05/22 02:29:47;;;;;;;8.07;3.80;;;8.30;99.90;;;;;;5137125;27;20135;-79
2022/05/22 02:32:12;;;;;;;7.25;3.55;;;8.30;99.90;;;;;;5135687;27;20096;-80
2022/05/22 02:34:38;;;;;;;6.93;3.78;;;8.30;99.90;;;;;;5136280;27;20121;-79
2022/05/22 02:37:04;;;;;;;10.40;3.80;;;8.30;99.90;;;;;;5134490;27;20050;-79
2022/05/22 02:39:30;;;;;;;6.30;4.53;;;8.30;99.90;;;;;;5115436;27;20031;-79
2022/05/22 02:42:06;;;;;;;7.13;3.70;;;8.30;99.90;;;;;;5146940;27;20038;-79
2022/05/22 02:44:32;;;;;;;6.88;3.30;;;8.30;99.90;;;;;;5137366;27;20050;-80
2022/05/22 02:46:58;;;;;;;9.15;4.13;;;8.20;99.90;;;;;;5131542;27;20043;-80
2022/05/22 02:49:23;;;;;;;8.93;5.00;;;8.20;99.90;;;;;;5116603;27;20039;-80
2022/05/22 02:51:49;;;;;;;6.88;3.83;;;8.20;99.90;;;;;;5116460;27;20507;-80
2022/05/22 02:54:15;;;;;;;7.18;4.00;;;8.20;99.90;;;;;;5137101;27;20031;-79
2022/05/22 02:56:41;;;;;;;6.18;3.50;;;8.20;99.90;;;;;;5134087;27;20091;-80
2022/05/22 02:59:08;;;;;;;5.90;3.35;;;8.20;99.90;;;;;;5115241;27;20108;-80
2022/05/22 03:01:33;;;;;;;6.57;2.95;;;8.20;99.90;;;;;;5115245;28;20079;-80
2022/05/22 03:03:59;;;;;;;9.48;3.72;;;8.10;99.90;;;;;;5113838;28;20071;-80
2022/05/22 03:06:40;;;;;;;5.75;3.17;;;8.10;99.90;;;;;;5114872;27;20035;-80
2022/05/22 03:09:15;;;;;;;6.38;3.00;;;8.10;99.90;;;;;;5112043;28;20043;-80
2022/05/22 03:11:41;;;;;;;3.67;2.58;;;8.00;99.90;;;;;;5113623;28;20042;-80
2022/05/22 03:14:07;;;;;;;3.22;2.88;;;8.00;99.90;;;;;;5096385;28;20044;-80
2022/05/22 03:16:33;;;;;;;2.60;1.48;;;8.00;99.90;;;;;;5133503;27;20082;-80
2022/05/22 03:18:59;;;;;;;3.72;2.03;;;7.90;99.90;;;;;;5126774;27;20080;-80
2022/05/22 03:21:27;;;;;;;5.20;3.03;;;7.90;99.90;;;;;;5112606;28;20096;-80
2022/05/22 03:23:53;;;;;;;3.00;2.33;;;7.90;99.90;;;;;;5121527;28;20050;-80
2022/05/22 03:26:19;;;;;;;3.50;2.05;;;7.90;99.90;;;;;;5134397;27;20180;-80
2022/05/22 03:28:45;;;;;;;3.33;1.98;;;7.90;99.90;;;;;;5132319;27;20118;-80
2022/05/22 03:31:11;;;;;;;3.03;1.90;;;7.90;99.90;;;;;;5134128;28;20051;-80
2022/05/22 03:33:36;;;;;;;2.10;1.83;;;7.90;99.90;;;;;;5131528;28;20074;-80
2022/05/22 03:36:04;;;;;;;2.05;1.85;;;7.80;99.90;;;;;;5132177;28;20134;-80
2022/05/22 03:38:30;;;;;;;4.47;2.30;;;7.90;99.90;;;;;;5123852;28;20494;-80
2022/05/22 03:40:56;;;;;;;2.50;2.30;;;7.90;99.90;;;;;;5133065;28;20031;-80
2022/05/22 03:43:21;;;;;;;3.08;2.40;;;7.90;99.90;;;;;;5115173;28;20471;-80
2022/05/22 03:45:47;;;;;;;3.55;2.83;;;7.90;99.90;;;;;;5112542;28;20176;-79
2022/05/22 03:48:13;;;;;;;3.22;2.42;;;7.80;99.90;;;;;;5113560;28;20082;-80
2022/05/22 03:50:39;;;;;;;1.90;1.75;;;7.80;99.90;;;;;;5128162;28;20043;-80
2022/05/22 03:53:05;;;;;;;2.72;2.30;;;7.90;99.90;;;;;;5126535;27;20044;-79
2022/05/22 03:55:31;;;;;;;3.42;2.60;;;7.80;99.90;;;;;;5128531;28;20081;-79
2022/05/22 03:57:58;;;;;;;2.95;2.58;;;7.90;99.90;;;;;;5133763;27;20068;-79
2022/05/22 04:00:24;;;;;;;3.03;2.45;;;7.90;99.90;;;;;;5148760;27;20048;-79
2022/05/22 04:02:51;;;;;;;3.25;2.88;;;7.90;99.90;;;;;;5115306;28;20039;-79
2022/05/22 04:05:17;;;;;;;2.30;2.10;;;8.00;99.90;;;;;;5114917;28;20412;-80
2022/05/22 04:07:48;;;;;;;4.32;2.75;;;8.00;99.90;;;;;;5119721;27;20444;-80
2022/05/22 04:10:16;;;;;;;2.40;2.20;;;8.00;99.90;;;;;;5119726;27;20122;-79
2022/05/22 04:12:43;;;;;;;3.90;2.38;;;8.00;99.90;;;;;;5150900;27;20107;-80
2022/05/22 04:15:13;;;;;;;8.55;2.53;;;8.10;99.90;;;;;;5139857;27;20050;-80
2022/05/22 04:17:40;;;;;;;7.63;3.08;;;8.10;99.90;;;;;;5107931;27;20043;-80
2022/05/22 04:20:07;;;;;;;6.18;2.60;;;8.20;99.90;;;;;;5136858;27;20047;-80
2022/05/22 04:22:33;;;;;;;8.95;2.55;;;8.20;99.90;;;;;;5125800;27;20049;-80
2022/05/22 04:25:15;;;;;;;2.72;2.38;;;8.30;99.90;;;;;;5137694;27;20046;-80
2022/05/22 04:27:42;;;;;;;5.32;2.80;;;8.30;99.90;;;;;;5139717;27;20047;-80
2022/05/22 04:30:17;;;;;;;3.88;2.97;;;8.30;99.90;;;;;;5151342;27;20092;-80
2022/05/22 04:32:47;;;;;;;5.85;2.70;;;8.30;99.90;;;;;;5118226;27;20047;-80
2022/05/22 04:35:13;;;;;;;5.45;3.13;;;8.30;99.90;;;;;;5125606;27;20052;-80
2022/05/22 04:37:39;;;;;;;4.25;2.25;;;8.40;99.90;;;;;;5128928;27;20527;-80
2022/05/22 04:40:07;;;;;;;4.93;2.97;;;8.40;99.90;;;;;;5120203;27;20087;-80
2022/05/22 04:42:34;;;;;;;5.07;3.60;;;8.50;99.90;;;;;;5139324;27;20121;-80
2022/05/22 04:45:00;;;;;;;9.15;3.80;;;8.50;99.90;;;;;;5156840;27;20039;-80
2022/05/22 04:47:25;;;;;;;12.02;3.72;;;8.60;99.90;;;;;;5138623;27;20043;-80
2022/05/22 04:49:51;;;;;;;7.00;5.00;;;8.70;99.90;;;;;;5119316;27;20103;-80
2022/05/22 04:52:17;;;;;;;13.15;4.88;;;8.80;99.90;;;;;;5145961;27;20041;-80
2022/05/22 04:54:42;;;;;;;11.77;5.57;;;9.00;99.90;;;;;;5137196;27;20086;-80
2022/05/22 04:57:08;;;;;;;8.48;4.70;;;9.00;99.90;;;;;;5103495;27;20395;-80
2022/05/22 04:59:34;;;;;;;14.38;5.40;;;9.20;99.90;;;;;;5136757;27;20063;-80
2022/05/22 05:02:01;;;;;;;9.80;6.18;;;9.30;99.90;;;;;;5154738;27;20050;-80
2022/05/22 05:04:27;;;;;;;21.83;7.00;;;9.40;99.90;;;;;;5157612;27;20053;-80
2022/05/22 05:06:53;;;;;;;12.65;6.68;;;9.50;99.90;;;;;;5129216;27;20490;-80
2022/05/22 05:09:19;;;;;;;9.73;6.45;;;9.60;99.90;;;;;;5117371;27;20050;-80
2022/05/22 05:11:44;;;;;;;12.90;5.65;;;9.70;99.90;;;;;;5132796;27;20047;-80
2022/05/22 05:14:10;;;;;;;16.80;6.78;;;9.80;99.90;;;;;;5117297;27;20095;-81
2022/05/22 05:16:36;;;;;;;14.57;7.18;;;10.00;99.90;;;;;;5139367;27;20047;-80
2022/05/22 05:19:02;;;;;;;12.38;6.53;;;10.10;99.90;;;;;;5117808;27;20099;-80
2022/05/22 05:21:28;;;;;;;12.77;6.68;;;10.20;99.90;;;;;;5125696;27;20047;-80
2022/05/22 05:23:55;;;;;;;10.65;5.90;;;10.30;99.90;;;;;;5136240;27;20474;-80
2022/05/22 05:26:22;;;;;;;14.57;6.00;;;10.40;99.90;;;;;;5125328;27;20494;-80
2022/05/22 05:28:48;;;;;;;13.32;6.40;;;10.50;99.90;;;;;;5117307;27;20093;-80
2022/05/22 05:31:14;;;;;;;15.15;7.85;;;10.60;99.90;;;;;;5128015;27;20450;-80
2022/05/22 05:33:40;;;;;;;20.05;8.93;;;10.70;99.90;;;;;;5156912;27;20077;-80
2022/05/22 05:36:11;;;;;;;21.27;7.45;;;10.80;99.90;;;;;;5136015;27;20053;-80
2022/05/22 05:38:37;;;;;;;18.17;7.72;;;10.90;99.90;;;;;;5155319;27;20047;-80
2022/05/22 05:41:03;;;;;;;16.20;7.72;;;11.00;99.90;;;;;;5145557;27;20126;-80
2022/05/22 05:43:28;;;;;;;14.90;7.47;;;11.10;99.90;;;;;;5155969;27;20113;-80
2022/05/22 05:45:54;;;;;;;17.30;8.10;;;11.30;99.90;;;;;;5155143;27;20038;-80
2022/05/22 05:48:20;;;;;;;19.33;9.25;;;11.30;99.90;;;;;;5154037;27;20486;-80
2022/05/22 05:50:46;;;;;;;19.10;8.75;;;11.50;99.90;;;;;;5154856;27;20042;-81
2022/05/22 05:53:12;;;;;;;18.77;8.23;;;11.50;99.90;;;;;;5107628;27;20055;-80
2022/05/22 05:55:41;;;;;;;20.83;8.73;;;11.70;99.90;;;;;;5156217;27;20050;-80
2022/05/22 05:58:07;;;;;;;18.42;8.43;;;11.80;99.90;;;;;;5132900;27;20055;-80
2022/05/22 06:00:33;;;;;;;17.67;8.43;;;11.90;99.90;;;;;;5137931;27;20053;-80
2022/05/22 06:02:59;;;;;;;18.00;7.93;;;12.00;99.90;;;;;;5136270;27;20078;-80
2022/05/22 06:05:25;;;;;;;20.33;8.40;;;12.10;99.90;;;;;;5155603;27;20082;-80
2022/05/22 06:07:52;;;;;;;17.15;8.27;;;12.10;99.90;;;;;;5125541;27;20135;-80
2022/05/22 06:10:19;;;;;;;22.65;7.40;;;12.20;99.90;;;;;;5136852;27;20047;-80
2022/05/22 06:12:46;;;;;;;11.25;7.03;;;12.30;99.90;;;;;;5135470;27;20041;-79
2022/05/22 06:15:14;;;;;;;14.48;7.07;;;12.40;99.90;;;;;;5137895;27;20398;-79
2022/05/22 06:17:43;;;;;;;14.35;6.80;;;12.50;99.90;;;;;;5133408;27;20042;-80
2022/05/22 06:20:11;;;;;;;17.35;7.38;;;12.60;99.90;;;;;;5120629;27;20383;-79
2022/05/22 06:22:37;;;;;;;16.45;7.50;;;12.70;99.90;;;;;;5136072;27;20043;-81
2022/05/22 06:25:06;;;;;;;16.70;7.60;;;12.80;99.90;;;;;;5138125;27;20513;-81
2022/05/22 06:27:32;;;;;;;19.33;7.45;;;12.90;99.90;;;;;;5148268;27;20045;-81
2022/05/22 06:29:58;;;;;;;15.48;6.65;;;13.00;99.90;;;;;;5155246;27;20039;-81
2022/05/22 06:32:24;;;;;;;14.07;6.75;;;13.20;99.90;;;;;;5149094;27;20043;-81
2022/05/22 06:34:50;;;;;;;16.58;5.85;;;13.30;99.90;;;;;;5116865;27;20099;-80
2022/05/22 06:37:19;;;;;;;17.45;6.43;;;13.40;99.90;;;;;;5117404;27;20035;-80
2022/05/22 06:39:52;;;;;;;21.25;6.35;;;13.50;99.90;;;;;;5118959;27;20040;-81
2022/05/22 06:42:19;;;;;;;16.55;6.75;;;13.60;99.90;;;;;;5152105;27;20154;-80
2022/05/22 06:44:54;;;;;;;13.02;5.45;;;13.70;99.90;;;;;;5140050;27;20039;-81
2022/05/22 06:47:21;;;;;;;19.80;5.68;;;13.80;99.90;;;;;;5152413;27;20043;-81
2022/05/22 06:49:47;;;;;;;19.40;6.40;;;13.90;99.90;;;;;;5149391;27;20394;-81
2022/05/22 06:52:13;;;;;;;18.52;5.40;;;14.00;99.90;;;;;;5153883;27;20038;-80
2022/05/22 06:54:39;;;;;;;14.68;5.28;;;14.10;99.90;;;;;;5119909;27;20477;-81
2022/05/22 06:57:05;;;;;;;13.65;4.75;;;14.10;99.90;;;;;;5126520;27;20058;-81
2022/05/22 06:59:31;;;;;;;18.98;4.72;;;14.20;99.90;;;;;;5115898;28;20553;-81
2022/05/22 07:02:00;;;;;;;16.98;5.13;;;14.30;99.90;;;;;;5116566;27;20054;-81
2022/05/22 07:04:26;;;;;;;21.45;6.95;;;14.40;99.90;;;;;;5134138;27;20035;-81
2022/05/22 07:06:52;;;;;;;14.55;5.32;;;14.50;99.90;;;;;;5115330;28;20129;-84
2022/05/22 07:09:18;;;;;;;12.52;4.32;;;14.50;99.90;;;;;;5118712;27;20054;-81
2022/05/22 07:11:45;;;;;;;18.67;5.30;;;14.60;99.90;;;;;;5116178;28;20049;-79
2022/05/22 07:14:14;;;;;;;15.10;5.00;;;14.70;99.90;;;;;;5115239;28;20079;-79
2022/05/22 07:16:40;;;;;;;14.10;3.95;;;14.80;99.90;;;;;;5135409;27;20058;-78
2022/05/22 07:19:09;;;;;;;18.92;6.40;;;14.80;99.90;;;;;;5134565;28;20047;-78
2022/05/22 07:21:34;;;;;;;14.73;4.35;;;14.80;99.90;;;;;;5132949;27;20043;-78
2022/05/22 07:24:00;;;;;;;9.65;3.70;;;14.90;99.90;;;;;;5116275;28;20561;-78
2022/05/22 07:26:27;;;;;;;15.35;4.20;;;14.90;99.90;;;;;;5135098;27;20053;-78
2022/05/22 07:28:53;;;;;;;13.88;3.97;;;15.00;99.90;;;;;;5114545;28;20035;-78
2022/05/22 07:31:21;;;;;;;21.52;3.90;;;15.00;99.90;;;;;;5134455;28;20410;-78
2022/05/22 07:33:48;;;;;;;13.38;4.03;;;15.10;99.90;;;;;;5117019;27;20043;-78
2022/05/22 07:36:15;;;;;;;15.00;3.65;;;15.10;99.90;;;;;;5142345;27;20500;-78
2022/05/22 07:38:40;;;;;;;13.30;3.30;;;15.20;99.90;;;;;;5136913;27;20035;-78
2022/05/22 07:41:06;;;;;;;8.73;3.08;;;15.20;99.90;;;;;;5136521;27;20039;-80
2022/05/22 07:43:32;;;;;;;13.82;4.07;;;15.30;99.90;;;;;;5120404;27;20047;-79
2022/05/22 07:45:58;;;;;;;20.27;4.03;;;15.30;99.90;;;;;;5138352;27;20035;-78
2022/05/22 07:48:24;;;;;;;10.65;3.40;;;15.40;99.90;;;;;;5139154;27;20043;-79
2022/05/22 07:50:57;;;;;;;14.07;2.90;;;15.40;99.90;;;;;;5118971;27;20126;-79
2022/05/22 07:53:23;;;;;;;13.05;4.05;;;15.50;99.90;;;;;;5121442;27;20093;-79
2022/05/22 07:55:49;;;;;;;14.50;3.10;;;15.60;99.90;;;;;;5138019;27;20126;-79
2022/05/22 07:58:16;;;;;;;12.07;3.05;;;15.60;99.90;;;;;;5138276;27;20043;-79
2022/05/22 08:00:42;;;;;;;11.25;3.08;;;15.70;99.90;;;;;;5119405;27;20566;-79
2022/05/22 08:03:13;;;;;;;14.65;4.03;;;15.70;99.90;;;;;;5136796;27;20114;-80
2022/05/22 08:05:39;;;;;;;10.55;3.22;;;15.80;99.90;;;;;;5137951;27;20043;-80
2022/05/22 08:08:05;;;;;;;10.20;2.92;;;15.80;99.90;;;;;;5120748;27;20112;-79
2022/05/22 08:10:31;;;;;;;16.45;3.65;;;15.80;99.90;;;;;;5157782;27;20045;-80
2022/05/22 08:12:57;;;;;;;10.90;3.20;;;15.80;99.90;;;;;;5142499;27;20394;-80
2022/05/22 08:15:25;;;;;;;9.88;3.03;;;15.90;99.90;;;;;;5119327;27;20051;-80
2022/05/22 08:17:51;;;;;;;11.50;3.33;;;15.90;99.90;;;;;;5118239;27;20043;-80
2022/05/22 08:20:20;;;;;;;10.10;2.80;;;15.90;99.90;;;;;;5119064;27;20047;-80
2022/05/22 08:22:46;;;;;;;9.25;2.40;;;16.00;99.90;;;;;;5119728;27;20043;-80
2022/05/22 08:25:15;;;;;;;13.95;3.40;;;16.00;99.90;;;;;;5136588;27;20114;-80
2022/05/22 08:27:41;;;;;;;13.52;3.47;;;16.10;99.90;;;;;;5106085;27;20047;-80
2022/05/22 08:30:08;;;;;;;8.85;3.25;;;16.20;99.90;;;;;;5137578;27;20036;-80
2022/05/22 08:32:38;;;;;;;18.17;3.78;;;16.20;99.90;;;;;;5117518;27;20040;-80
2022/05/22 08:35:06;;;;;;;10.48;3.42;;;16.20;99.90;;;;;;5126001;27;20043;-80
2022/05/22 08:37:34;;;;;;;9.45;2.50;;;16.20;99.90;;;;;;5128296;27;20527;-80
2022/05/22 08:40:00;;;;;;;8.70;3.15;;;16.20;99.90;;;;;;5127918;27;20043;-80
2022/05/22 08:42:41;;;;;;;10.57;2.88;;;16.20;99.90;;;;;;5136935;27;20077;-80
2022/05/22 08:45:37;;;;;;;13.02;3.70;;;16.20;99.90;;;;;;5136224;27;20051;-80
2022/05/22 08:48:26;;;;;;;12.52;2.78;;;16.30;99.90;;;;;;5139459;27;20130;-80
2022/05/22 08:50:55;;;;;;;9.52;2.40;;;16.40;99.90;;;;;;5115717;27;20031;-79
2022/05/22 08:53:42;;;;;;;11.20;3.28;;;16.40;99.90;;;;;;5123608;27;20043;-80
2022/05/22 08:59:05;;;;;;;9.05;3.05;;;16.60;99.90;;;;;;5157436;27;20122;-80
2022/05/22 09:01:46;;;;;;;9.83;2.47;;;16.60;99.90;;;;;;5138407;27;20046;-80
2022/05/22 09:04:15;;;;;;;10.15;2.50;;;16.70;99.90;;;;;;5138896;27;20050;-80
2022/05/22 09:06:49;;;;;;;14.02;3.35;;;16.80;99.90;;;;;;5137138;27;20067;-80
2022/05/22 09:09:14;;;;;;;12.00;2.80;;;16.90;99.90;;;;;;5108339;27;20047;-80
2022/05/22 09:11:40;;;;;;;10.80;2.63;;;16.90;99.90;;;;;;5118324;27;20100;-80
2022/05/22 09:14:17;;;;;;;14.27;3.28;;;17.00;99.90;;;;;;5149639;27;20065;-81
2022/05/22 09:17:22;;;;;;;8.88;2.60;;;17.10;99.90;;;;;;5138956;27;20057;-80
2022/05/22 09:20:06;;;;;;;9.90;2.47;;;17.30;99.90;;;;;;5122618;27;20051;-80
2022/05/22 09:22:59;;;;;;;11.97;2.57;;;17.30;99.90;;;;;;5115302;27;20050;-80
2022/05/22 09:25:51;;;;;;;9.85;2.55;;;17.30;99.90;;;;;;5155181;27;20079;-80
2022/05/22 09:28:34;;;;;;;13.73;2.40;;;17.30;99.90;;;;;;5135186;27;20110;-80
2022/05/22 09:31:13;;;;;;;10.20;2.50;;;17.40;99.90;;;;;;5136062;27;20512;-80
2022/05/22 09:33:51;;;;;;;7.50;1.98;;;17.50;99.90;;;;;;5117788;27;20050;-81
2022/05/22 09:36:42;;;;;;;8.45;1.85;;;17.60;99.90;;;;;;5134792;27;20512;-82
2022/05/22 09:39:26;;;;;;;10.38;2.60;;;17.80;99.90;;;;;;5117617;27;20486;-81
2022/05/22 09:42:01;;;;;;;12.60;1.90;;;18.00;99.90;;;;;;5136167;27;20051;-81
2022/05/22 09:44:30;;;;;;;;;;;18.10;99.90;;;;;;5118112;27;20039;-80
2022/05/22 09:47:15;;;;;;;7.78;2.17;;;18.00;99.90;;;;;;5117030;27;19926;-81
2022/05/22 09:49:50;;;;;;;6.45;2.03;;;18.10;99.90;;;;;;5132957;27;20043;-81
2022/05/22 09:52:26;;;;;;;7.50;1.95;;;18.20;99.90;;;;;;5146030;27;20046;-83
2022/05/22 09:55:19;;;;;;;7.78;1.50;;;18.30;99.90;;;;;;5128902;27;20051;-83
2022/05/22 09:58:22;;;;;;;13.20;3.20;;;18.40;99.90;;;;;;5116394;27;20383;-83
2022/05/22 10:01:06;;;;;;;11.70;2.83;;;18.50;99.90;;;;;;5135258;27;20055;-81
2022/05/22 10:03:50;;;;;;;10.27;3.22;;;18.50;99.90;;;;;;5115982;27;20501;-82
2022/05/22 10:06:39;;;;;;;5.88;1.98;;;18.60;99.90;;;;;;5116438;27;20039;-82
2022/05/22 10:09:56;;;;;;;6.60;1.73;;;18.70;99.90;;;;;;5133736;27;20122;-81
2022/05/22 10:12:41;;;;;;;12.02;2.60;;;18.70;99.90;;;;;;5071594;27;20050;-81
2022/05/22 10:15:26;;;;;;;8.48;1.95;;;18.80;99.90;;;;;;5153802;27;20053;-82
2022/05/22 10:18:15;;;;;;;10.95;1.90;;;18.90;99.90;;;;;;5116434;27;20402;-81
2022/05/22 10:21:09;;;;;;;9.40;2.17;;;19.00;99.90;;;;;;5135038;27;20027;-80
2022/05/22 10:23:37;;;;;;;10.18;1.70;;;19.00;99.90;;;;;;5134552;27;20051;-80
2022/05/22 10:26:35;;;;;;;7.45;2.03;;;19.00;99.90;;;;;;5116318;27;20043;-80
2022/05/22 10:29:05;;;;;;;8.57;2.13;;;19.00;99.90;;;;;;5116896;27;20041;-81
2022/05/22 10:31:41;;;;;;;9.43;2.22;;;18.90;99.90;;;;;;5140207;27;20046;-81
2022/05/22 10:34:42;;;;;;;7.97;2.28;;;18.80;99.90;;;;;;5155940;27;20103;-80
2022/05/22 10:37:12;;;;;;;6.72;1.90;;;18.70;99.90;;;;;;5120644;27;20380;-80
2022/05/22 10:39:38;;;;;;;6.40;1.75;;;18.60;99.90;;;;;;5133625;27;20089;-81
2022/05/22 10:42:45;;;;;;;9.30;1.80;;;18.70;99.90;;;;;;5114803;27;20097;-80
2022/05/22 10:45:20;;;;;;;8.65;1.55;;;18.90;99.90;;;;;;5133284;27;20049;-81
2022/05/22 10:47:46;;;;;;;9.18;1.98;;;18.90;99.90;;;;;;5138010;27;20080;-81
2022/05/22 10:50:17;;;;;;;11.00;2.38;;;18.90;99.90;;;;;;5116195;27;20047;-81
2022/05/22 10:52:43;;;;;;;7.18;2.47;;;19.00;99.90;;;;;;5117058;27;20510;-81
2022/05/22 10:55:20;;;;;;;5.18;1.60;;;19.10;99.90;;;;;;5117202;27;20555;-80
2022/05/22 10:58:02;;;;;;;9.15;1.63;;;19.10;99.90;;;;;;5123458;27;20047;-82
2022/05/22 11:00:28;;;;;;;6.18;1.60;;;19.20;99.90;;;;;;5114854;27;20127;-82
2022/05/22 11:02:54;;;;;;;8.73;1.80;;;19.20;99.90;;;;;;5134699;27;20047;-81
2022/05/22 11:05:27;;;;;;;5.88;1.70;;;19.20;99.90;;;;;;5134038;27;20039;-81
2022/05/22 11:07:55;;;;;;;7.43;1.75;;;19.20;99.90;;;;;;5133912;27;20047;-81
2022/05/22 11:10:21;;;;;;;5.90;1.65;;;19.20;99.90;;;;;;5134305;27;20047;-82
2022/05/22 11:13:08;;;;;;;13.75;2.60;;;19.30;99.90;;;;;;5139290;27;20091;-80
2022/05/22 11:15:42;;;;;;;7.95;1.92;;;19.30;99.90;;;;;;5134090;27;20423;-81
2022/05/22 11:18:23;;;;;;;8.88;1.48;;;19.40;99.90;;;;;;5134049;27;20050;-80
2022/05/22 11:21:02;;;;;;;10.68;2.22;;;19.40;99.90;;;;;;5133092;27;20216;-81
2022/05/22 11:23:27;;;;;;;7.10;1.80;;;19.40;99.90;;;;;;5154176;27;20049;-80
2022/05/22 11:26:25;;;;;;;10.10;2.15;;;19.40;99.90;;;;;;5136121;27;20035;-81
2022/05/22 11:29:09;;;;;;;10.48;2.88;;;19.40;99.90;;;;;;5097909;28;20051;-81
2022/05/22 11:31:52;;;;;;;7.75;1.52;;;19.50;99.90;;;;;;5141097;27;20038;-81
2022/05/22 11:34:44;;;;;;;5.95;2.15;;;19.40;99.90;;;;;;5142256;27;20133;-82
2022/05/22 11:37:30;;;;;;;7.90;2.00;;;19.40;99.90;;;;;;5116171;28;20111;-81
2022/05/22 11:40:02;;;;;;;7.25;1.90;;;19.50;99.90;;;;;;5115470;28;20059;-81
2022/05/22 11:42:32;;;;;;;8.38;1.52;;;19.50;99.90;;;;;;5132927;27;20051;-82
2022/05/22 11:45:26;;;;;;;7.75;1.85;;;19.60;99.90;;;;;;5134343;28;20039;-81
2022/05/22 11:48:10;;;;;;;7.85;1.73;;;19.60;99.90;;;;;;5113441;28;20100;-81
2022/05/22 11:51:05;;;;;;;6.25;1.65;;;19.50;99.90;;;;;;5134283;28;20047;-82
2022/05/22 11:53:50;;;;;;;5.80;1.98;;;19.30;99.90;;;;;;5115337;28;20047;-82
2022/05/22 11:56:15;;;;;;;;;;;19.20;99.90;;;;;;5098627;28;20148;-81
2022/05/22 11:58:48;;;;;;;6.40;1.67;;;19.10;99.90;;;;;;5133333;27;20374;-81
2022/05/22 12:01:15;;;;;;;6.70;1.70;;;19.10;99.90;;;;;;5123657;27;20130;-82
2022/05/22 12:03:59;;;;;;;10.38;2.55;;;19.00;99.90;;;;;;5142551;27;20405;-81
2022/05/22 12:06:36;;;;;;;4.55;1.45;;;19.00;99.90;;;;;;5134325;28;20071;-81
2022/05/22 12:09:39;;;;;;;7.18;1.92;;;19.00;99.90;;;;;;5101641;28;20039;-81
2022/05/22 12:12:29;;;;;;;6.38;2.08;;;19.00;99.90;;;;;;5114972;27;20085;-80
2022/05/22 12:15:31;;;;;;;5.82;1.70;;;19.00;99.90;;;;;;5122517;28;20051;-81
2022/05/22 12:18:02;;;;;;;9.10;2.40;;;18.90;99.90;;;;;;5116443;28;20047;-80
2022/05/22 12:21:03;;;;;;;7.97;1.60;;;18.90;99.90;;;;;;5115790;28;20051;-81
2022/05/22 12:23:38;;;;;;;6.47;2.17;;;18.90;99.90;;;;;;5118071;27;20063;-81
2022/05/22 12:26:08;;;;;;;7.35;1.77;;;18.90;99.90;;;;;;5115566;28;20073;-80
2022/05/22 12:28:43;;;;;;;5.13;1.67;;;18.90;99.90;;;;;;5116761;27;20047;-80
2022/05/22 12:31:18;;;;;;;11.25;2.03;;;18.90;99.90;;;;;;5136626;27;20088;-81
2022/05/22 12:33:45;;;;;;;6.45;1.40;;;18.90;99.90;;;;;;5147905;27;20043;-81
2022/05/22 12:36:12;;;;;;;6.45;1.75;;;18.90;99.90;;;;;;5139613;27;20122;-80
2022/05/22 12:38:51;;;;;;;8.05;1.52;;;19.00;99.90;;;;;;5142751;27;20050;-81
2022/05/22 12:41:25;;;;;;;6.43;1.40;;;19.00;99.90;;;;;;5118808;27;20074;-82
2022/05/22 12:43:56;;;;;;;14.13;2.67;;;19.00;99.90;;;;;;5118686;27;20432;-82
2022/05/22 12:46:23;;;;;;;8.82;1.65;;;19.00;99.90;;;;;;5137155;27;20038;-80
2022/05/22 12:48:51;;;;;;;8.40;1.58;;;19.00;99.90;;;;;;5136587;27;20081;-82
2022/05/22 12:51:31;;;;;;;6.38;1.75;;;19.00;99.90;;;;;;5120937;27;20031;-83
2022/05/22 12:54:08;;;;;;;6.00;1.60;;;19.10;99.90;;;;;;5139501;27;20125;-82
2022/05/22 12:56:34;;;;;;;9.10;1.60;;;19.10;99.90;;;;;;5131350;27;20035;-82
2022/05/22 12:59:17;;;;;;;4.63;1.27;;;19.10;99.90;;;;;;5145358;27;20051;-82
2022/05/22 13:01:45;;;;;;;5.45;1.40;;;19.10;99.90;;;;;;5121856;27;20130;-82
2022/05/22 13:04:20;;;;;;;10.80;2.03;;;19.10;99.90;;;;;;5154843;27;20114;-84
2022/05/22 13:06:51;;;;;;;7.10;2.03;;;19.10;99.90;;;;;;5139624;27;20092;-84
2022/05/22 13:09:35;;;;;;;5.28;1.27;;;19.20;99.90;;;;;;5136883;27;20047;-84
2022/05/22 13:12:05;;;;;;;6.35;1.88;;;19.20;99.90;;;;;;5117958;27;20077;-81